Leona, TX (75850)

12:07 AM CDT on September 16, 2014 (GMT -0500)
WA5GED - LXRanch | Change Station
CLOSE
Current Station
Personal Weather Station
Location: Centerville, TX
Elevation: 266 ft
Nearby Weather Stations

Elev 266 ft 31.18 °N, 95.85 °W | Updated 5 minutes ago

Mostly Cloudy
Mostly Cloudy
75.2 °F
Feels Like 74 °F
N
0.0
Wind Variable Wind from North
Gusts 0.0 mph

Today
High -- | Low -- °F
--% Chance of Precip.
Yesterday
High -- | Low -- °F
Precip. -- in
7:08 AM 7:28 PM
Waning Gibbous, 49% visible
Pressure 30.10 in
Visibility 10.0 miles
Clouds Clear
Heat Index 74 °F
Dew Point 73 °F
Humidity 93%
Rainfall 0.00 in
Snow Depth Not available.
UV 0 out of 12
Pollen 10.00 out of 12
Air Quality Not available.
Flu Activity Not available.
METAR KUTS 160453Z AUTO 00000KT 10SM CLR 25/22 A3011 RMK AO2 SLP191 T02500222

More Conditions Fewer Conditions

Pressure 30.10 in
Visibility 10.0 miles
Clouds Clear
Heat Index 74 °F
Dew Point 73 °F
Humidity 93%
Rainfall 0.00 in
Snow Depth Not available.
UV 0 out of 12
Pollen 10.00 out of 12
Air Quality Not available.
Flu Activity Not available.
METAR KUTS 160453Z AUTO 00000KT 10SM CLR 25/22 A3011 RMK AO2 SLP191 T02500222

More Conditions Fewer Conditions

10-Day Weather Forecast

Almanac

Astronomy

Sep. 16, 2014 Rise Set
Actual Time 7:08 AM CDT 7:28 PM CDT
Civil Twilight 6:44 AM CDT 7:52 PM CDT
Nautical Twilight 6:15 AM CDT 8:20 PM CDT
Astronomical Twilight 5:47 AM CDT 8:49 PM CDT
Moon 12:35 AM CDT 2:36 PM CDT
Length of Visible Light 13h 07m
Length of Day
12h 19m
Tomorrow will be 1m 53s shorter.
Waning Gibbous, 49% of the Moon is Illuminated
Today
Waning Gibbous
Sep 24
New
Oct 1
First Quarter
Oct 8
Full
Oct 15
Last Quarter

Today's Extremes

State Highs State Lows

Community

WunderPhotos

Upload Photos

1,753,702 photos uploaded!

Nearby

Snow Depth

Station Depth Elevation
No new snow has been reported.

Earthquake Activity

City Distance Mag. Time & Date
No recent earthquake activity has been reported nearby.
Minimum magnitude displayed is 2.5.

Coastal Water Temperatures

Place Temperature
No Stations Reporting

Nearby Weather Stations